createdAt,value
2022-09-21T00:00:37.598Z,0.90
2022-09-21T00:01:37.725Z,0.80
2022-09-21T00:02:37.587Z,1.00
2022-09-21T00:03:37.568Z,0.90
2022-09-21T00:04:37.638Z,0.90
2022-09-21T00:05:37.498Z,1.00
2022-09-21T00:06:37.508Z,0.90
2022-09-21T00:07:37.524Z,1.30
2022-09-21T00:08:37.477Z,0.90
2022-09-21T00:09:37.455Z,0.90
2022-09-21T00:10:37.530Z,1.00
2022-09-21T00:11:37.434Z,0.80
2022-09-21T00:12:37.425Z,0.80
2022-09-21T00:13:37.433Z,0.90
2022-09-21T00:14:37.387Z,1.00
2022-09-21T00:15:37.377Z,0.80
2022-09-21T00:16:37.538Z,0.90
2022-09-21T00:17:37.378Z,0.90
2022-09-21T00:18:37.337Z,0.80
2022-09-21T00:19:37.346Z,1.00
2022-09-21T00:20:37.304Z,0.80
2022-09-21T00:21:37.284Z,1.10
2022-09-21T00:22:37.506Z,0.80
2022-09-21T00:23:37.259Z,0.90
2022-09-21T00:24:37.253Z,0.90
2022-09-21T00:25:37.266Z,0.80
2022-09-21T00:26:37.226Z,0.80
2022-09-21T00:27:37.208Z,1.10
2022-09-21T00:28:37.286Z,0.90
2022-09-21T00:29:37.179Z,1.00
2022-09-21T00:30:37.158Z,0.90
2022-09-21T00:31:37.214Z,0.70
2022-09-21T00:32:37.146Z,0.90
2022-09-21T00:33:37.124Z,1.00
2022-09-21T00:34:37.339Z,1.00
2022-09-21T00:35:37.088Z,0.90
2022-09-21T00:36:37.077Z,0.70
2022-09-21T00:37:37.119Z,1.10
2022-09-21T00:38:37.057Z,0.80
2022-09-21T00:39:37.040Z,0.90
2022-09-21T00:40:37.189Z,0.70
2022-09-21T00:41:37.025Z,1.00
2022-09-21T00:42:36.996Z,0.70
2022-09-21T00:43:37.020Z,0.80
2022-09-21T00:44:36.965Z,1.00
2022-09-21T00:45:36.992Z,0.90
2022-09-21T00:46:37.023Z,0.80
2022-09-21T00:47:36.920Z,0.90
2022-09-21T00:48:36.913Z,1.10
2022-09-21T00:49:37.073Z,0.80
2022-09-21T00:50:36.903Z,0.80
2022-09-21T00:51:36.870Z,0.80
2022-09-21T00:52:37.519Z,0.90
2022-09-21T00:53:36.836Z,0.70
2022-09-21T00:54:36.835Z,1.00
2022-09-21T00:55:36.842Z,1.00
2022-09-21T00:56:36.811Z,0.80
2022-09-21T00:57:36.795Z,0.80
2022-09-21T00:58:36.923Z,0.70
2022-09-21T00:59:36.751Z,0.80
2022-09-21T01:00:36.748Z,0.80
2022-09-21T01:01:36.775Z,0.90
2022-09-21T01:02:36.731Z,0.80
2022-09-21T01:03:36.711Z,0.90
2022-09-21T01:04:36.895Z,1.00
2022-09-21T01:05:36.678Z,0.80
2022-09-21T01:06:36.657Z,0.80
2022-09-21T01:07:36.673Z,0.70
2022-09-21T01:08:36.644Z,0.80
2022-09-21T01:09:36.615Z,0.90
2022-09-21T01:10:36.766Z,0.70
2022-09-21T01:11:36.577Z,0.90
2022-09-21T01:12:36.575Z,0.90
2022-09-21T01:13:36.605Z,0.80
2022-09-21T01:14:36.549Z,0.80
2022-09-21T01:15:36.523Z,0.90
2022-09-21T01:16:36.769Z,0.80
2022-09-21T01:17:36.520Z,1.00
2022-09-21T01:18:36.497Z,0.80
2022-09-21T01:19:36.498Z,0.80
2022-09-21T01:20:36.466Z,1.00
2022-09-21T01:21:36.456Z,1.00
2022-09-21T01:22:36.591Z,0.90
2022-09-21T01:23:36.419Z,0.60
2022-09-21T01:24:36.411Z,0.90
2022-09-21T01:25:36.563Z,1.10
2022-09-21T01:26:36.376Z,0.70
2022-09-21T01:27:36.375Z,0.80
2022-09-21T01:28:36.510Z,0.80
2022-09-21T01:29:36.336Z,1.10
2022-09-21T01:30:36.312Z,0.70
2022-09-21T01:31:36.486Z,0.80
2022-09-21T01:32:36.296Z,0.80
2022-09-21T01:33:36.281Z,1.20
2022-09-21T01:34:36.427Z,0.90
2022-09-21T01:35:36.250Z,0.90
2022-09-21T01:36:36.238Z,0.90
2022-09-21T01:37:36.267Z,0.80
2022-09-21T01:38:36.328Z,0.80
2022-09-21T01:39:36.192Z,0.70
2022-09-21T01:40:36.401Z,1.00
2022-09-21T01:41:36.163Z,0.80
2022-09-21T01:42:36.157Z,1.00
2022-09-21T01:43:36.182Z,0.90
2022-09-21T01:44:36.134Z,0.70
2022-09-21T01:45:36.148Z,1.10
2022-09-21T01:46:36.191Z,0.90
2022-09-21T01:47:36.092Z,0.80
2022-09-21T01:48:36.066Z,0.80
2022-09-21T01:49:36.089Z,1.00
2022-09-21T01:50:36.045Z,1.20
2022-09-21T01:51:36.024Z,0.90
2022-09-21T01:52:36.098Z,1.00
2022-09-21T01:53:35.995Z,1.10
2022-09-21T01:54:35.985Z,1.20
2022-09-21T01:55:36.011Z,0.90
2022-09-21T01:56:35.964Z,1.00
2022-09-21T01:57:35.947Z,0.90
2022-09-21T01:58:36.085Z,0.90
2022-09-21T01:59:35.921Z,0.80
2022-09-21T02:00:35.954Z,0.80
2022-09-21T02:01:35.931Z,0.90
2022-09-21T02:02:35.892Z,0.90
2022-09-21T02:03:35.865Z,0.90
2022-09-21T02:04:36.054Z,1.00
2022-09-21T02:05:35.846Z,0.90
2022-09-21T02:06:35.818Z,1.00
2022-09-21T02:07:35.832Z,1.00
2022-09-21T02:08:35.796Z,1.10
2022-09-21T02:09:35.777Z,1.00
2022-09-21T02:10:35.848Z,0.90
2022-09-21T02:11:35.753Z,1.20
2022-09-21T02:12:35.736Z,0.80
2022-09-21T02:13:35.784Z,1.00
2022-09-21T02:14:35.708Z,1.20
2022-09-21T02:15:35.694Z,0.90
2022-09-21T02:16:35.765Z,1.30
2022-09-21T02:17:35.666Z,1.10
2022-09-21T02:18:35.646Z,0.90
2022-09-21T02:19:35.686Z,0.90
2022-09-21T02:20:35.614Z,0.90
2022-09-21T02:21:35.629Z,0.90
2022-09-21T02:22:35.732Z,0.90
2022-09-21T02:23:35.581Z,1.20
2022-09-21T02:24:35.573Z,1.00
2022-09-21T02:25:35.610Z,0.90
2022-09-21T02:26:35.554Z,0.80
2022-09-21T02:27:35.518Z,0.70
2022-09-21T02:28:35.672Z,1.00
2022-09-21T02:29:35.490Z,1.00
2022-09-21T02:30:35.484Z,0.90
2022-09-21T02:31:35.527Z,0.90
2022-09-21T02:32:35.465Z,0.80
2022-09-21T02:33:35.451Z,0.90
2022-09-21T02:34:35.570Z,1.00
2022-09-21T02:35:35.408Z,0.80
2022-09-21T02:36:35.394Z,1.00
2022-09-21T02:37:35.408Z,0.80
2022-09-21T02:38:35.381Z,1.00
2022-09-21T02:39:35.359Z,0.90
2022-09-21T02:40:35.607Z,0.70
2022-09-21T02:41:35.318Z,1.00
2022-09-21T02:42:35.326Z,0.90
2022-09-21T02:43:35.337Z,1.10
2022-09-21T02:44:35.283Z,0.90
2022-09-21T02:45:35.268Z,0.90
2022-09-21T02:46:35.534Z,0.90
2022-09-21T02:47:35.242Z,1.00
2022-09-21T02:48:35.227Z,1.00
2022-09-21T02:49:35.238Z,1.00
2022-09-21T02:50:35.208Z,1.10
2022-09-21T02:51:35.190Z,1.00
2022-09-21T02:52:35.324Z,1.00
2022-09-21T02:53:35.156Z,1.00
2022-09-21T02:54:35.147Z,0.80
2022-09-21T02:55:35.366Z,0.90
2022-09-21T02:56:35.121Z,0.70
2022-09-21T02:57:35.109Z,0.70
2022-09-21T02:58:35.286Z,0.90
2022-09-21T02:59:35.083Z,1.40
2022-09-21T03:00:35.093Z,0.90
2022-09-21T03:01:35.101Z,0.80
2022-09-21T03:02:35.040Z,1.00
2022-09-21T03:03:35.015Z,0.80
2022-09-21T03:04:35.151Z,1.00
2022-09-21T03:05:34.982Z,1.00
2022-09-21T03:06:35.001Z,1.00
2022-09-21T03:07:35.206Z,1.00
2022-09-21T03:08:34.970Z,0.70
2022-09-21T03:09:34.941Z,0.90
2022-09-21T03:10:34.919Z,0.80
2022-09-21T03:11:34.907Z,0.90
2022-09-21T03:12:34.897Z,1.10
2022-09-21T03:13:35.059Z,1.00
2022-09-21T03:14:34.854Z,0.90
2022-09-21T03:15:34.888Z,1.00
2022-09-21T03:16:34.836Z,0.90
2022-09-21T03:17:34.818Z,0.90
2022-09-21T03:18:34.809Z,1.10
2022-09-21T03:19:34.904Z,0.90
2022-09-21T03:20:34.781Z,0.90
2022-09-21T03:21:34.755Z,1.00
2022-09-21T03:22:34.771Z,1.10
2022-09-21T03:23:34.727Z,0.90
2022-09-21T03:24:34.739Z,0.90
2022-09-21T03:25:34.817Z,1.10
2022-09-21T03:26:34.704Z,0.90
2022-09-21T03:27:34.675Z,0.90
2022-09-21T03:28:34.676Z,0.90
2022-09-21T03:29:34.642Z,0.90
2022-09-21T03:30:34.646Z,0.80
2022-09-21T03:31:35.035Z,1.00
2022-09-21T03:32:34.633Z,0.90
2022-09-21T03:33:34.595Z,1.00
2022-09-21T03:34:34.618Z,1.00
2022-09-21T03:35:34.571Z,1.00
2022-09-21T03:36:34.549Z,0.90
2022-09-21T03:37:38.114Z,0.90
2022-09-21T03:38:35.527Z,1.00
2022-09-21T03:39:34.517Z,1.00
2022-09-21T03:40:34.555Z,0.90
2022-09-21T03:41:34.492Z,0.90
2022-09-21T03:42:34.512Z,1.00
2022-09-21T03:43:34.718Z,1.00
2022-09-21T03:44:34.444Z,0.90
2022-09-21T03:45:34.429Z,0.80
2022-09-21T03:46:34.469Z,0.90
2022-09-21T03:47:34.398Z,1.00
2022-09-21T03:48:34.386Z,1.00
2022-09-21T03:49:34.568Z,1.00
2022-09-21T03:50:34.373Z,0.90
2022-09-21T03:51:34.351Z,1.00
2022-09-21T03:52:34.358Z,0.90
2022-09-21T03:53:34.318Z,0.90
2022-09-21T03:54:34.306Z,1.00
2022-09-21T03:55:34.396Z,1.00
2022-09-21T03:56:34.270Z,1.10
2022-09-21T03:57:34.302Z,1.00
2022-09-21T03:58:34.251Z,1.00
2022-09-21T03:59:34.227Z,0.80
2022-09-21T04:00:34.260Z,1.00
2022-09-21T04:01:34.360Z,0.80
2022-09-21T04:02:34.236Z,0.80
2022-09-21T04:03:34.191Z,0.80
2022-09-21T04:04:34.200Z,1.10
2022-09-21T04:05:34.182Z,0.80
2022-09-21T04:06:34.147Z,0.90
2022-09-21T04:07:34.297Z,1.10
2022-09-21T04:08:34.102Z,1.00
2022-09-21T04:09:34.108Z,1.50
2022-09-21T04:10:34.090Z,0.90
2022-09-21T04:11:34.073Z,1.00
2022-09-21T04:12:34.047Z,0.90
2022-09-21T04:13:34.263Z,1.10
2022-09-21T04:14:34.026Z,1.00
2022-09-21T04:15:34.073Z,1.00
2022-09-21T04:16:34.010Z,1.00
2022-09-21T04:17:33.981Z,0.80
2022-09-21T04:18:33.971Z,0.80
2022-09-21T04:19:34.124Z,0.80
2022-09-21T04:20:33.989Z,0.80
2022-09-21T04:21:33.942Z,0.90
2022-09-21T04:22:33.911Z,0.90
2022-09-21T04:23:33.917Z,1.00
2022-09-21T04:24:33.883Z,0.90
2022-09-21T04:25:34.056Z,0.90
2022-09-21T04:26:33.862Z,0.90
2022-09-21T04:27:33.833Z,1.00
2022-09-21T04:28:33.862Z,1.10
2022-09-21T04:29:33.812Z,1.40
2022-09-21T04:30:37.522Z,1.40
2022-09-21T04:31:33.902Z,1.00
2022-09-21T04:32:33.775Z,0.90
2022-09-21T04:33:33.757Z,1.50
2022-09-21T04:34:33.747Z,1.00
2022-09-21T04:35:33.736Z,0.80
2022-09-21T04:36:36.617Z,0.90
2022-09-21T04:37:34.116Z,0.90
2022-09-21T04:38:33.682Z,0.90
2022-09-21T04:39:33.694Z,0.90
2022-09-21T04:40:33.702Z,0.80
2022-09-21T04:41:33.653Z,1.00
2022-09-21T04:42:33.642Z,1.00
2022-09-21T04:43:33.809Z,0.90
2022-09-21T04:44:33.611Z,1.00
2022-09-21T04:45:33.586Z,0.90
2022-09-21T04:46:33.615Z,0.90
2022-09-21T04:47:33.568Z,1.00
2022-09-21T04:48:33.546Z,1.10
2022-09-21T04:49:33.656Z,0.90
2022-09-21T04:50:33.514Z,0.80
2022-09-21T04:51:33.502Z,1.20
2022-09-21T04:52:33.503Z,1.00
2022-09-21T04:53:33.506Z,1.00
2022-09-21T04:54:33.464Z,0.90
2022-09-21T04:55:33.764Z,1.00
2022-09-21T04:56:33.435Z,0.80
2022-09-21T04:57:33.427Z,0.80
2022-09-21T04:58:33.410Z,0.90
2022-09-21T04:59:33.381Z,1.20
2022-09-21T05:00:33.372Z,0.90
2022-09-21T05:01:33.720Z,0.90
2022-09-21T05:02:33.366Z,0.90
2022-09-21T05:03:33.364Z,0.90
2022-09-21T05:04:33.324Z,1.00
2022-09-21T05:05:33.316Z,1.00
2022-09-21T05:06:33.290Z,0.90
2022-09-21T05:07:33.498Z,0.90
2022-09-21T05:08:33.306Z,0.90
2022-09-21T05:09:33.264Z,0.80
2022-09-21T05:10:33.262Z,1.00
2022-09-21T05:11:33.246Z,0.90
2022-09-21T05:12:33.273Z,1.20
2022-09-21T05:13:33.398Z,0.80
2022-09-21T05:14:33.222Z,1.00
2022-09-21T05:15:33.202Z,1.00
2022-09-21T05:16:33.879Z,1.40
2022-09-21T05:17:33.180Z,1.30
2022-09-21T05:18:33.188Z,1.20
2022-09-21T05:19:33.295Z,0.90
2022-09-21T05:20:33.139Z,1.00
2022-09-21T05:21:33.185Z,1.10
2022-09-21T05:22:33.102Z,1.00
2022-09-21T05:23:33.117Z,1.20
2022-09-21T05:24:33.054Z,1.10
2022-09-21T05:25:33.344Z,1.30
2022-09-21T05:26:33.047Z,1.00
2022-09-21T05:27:33.006Z,1.10
2022-09-21T05:28:35.518Z,1.20
2022-09-21T05:29:33.973Z,1.10
2022-09-21T05:30:33.037Z,1.20
2022-09-21T05:31:33.184Z,1.20
2022-09-21T05:32:32.932Z,1.10
2022-09-21T05:33:32.938Z,0.90
2022-09-21T05:34:36.382Z,1.00
2022-09-21T05:35:32.905Z,1.20
2022-09-21T05:36:32.870Z,1.40
2022-09-21T05:37:33.109Z,1.30
2022-09-21T05:38:32.857Z,1.40
2022-09-21T05:39:32.860Z,1.40
2022-09-21T05:40:32.889Z,1.70
2022-09-21T05:41:32.799Z,3.20
2022-09-21T05:42:32.789Z,3.00
2022-09-21T05:43:32.951Z,9.00
2022-09-21T05:44:32.794Z,4.10
2022-09-21T05:45:32.748Z,3.70
2022-09-21T05:46:32.742Z,2.00
2022-09-21T05:47:32.733Z,1.50
2022-09-21T05:48:32.707Z,2.60
2022-09-21T05:49:32.936Z,1.90
2022-09-21T05:50:32.686Z,1.90
2022-09-21T05:51:32.700Z,2.60
2022-09-21T05:52:32.648Z,5.40
2022-09-21T05:53:32.650Z,1.80
2022-09-21T05:54:32.630Z,3.10
2022-09-21T05:55:32.814Z,2.20
2022-09-21T05:56:32.595Z,1.70
2022-09-21T05:57:32.582Z,1.80
2022-09-21T05:58:32.587Z,2.10
2022-09-21T05:59:32.552Z,1.70
2022-09-21T06:00:32.548Z,1.50
2022-09-21T06:01:32.845Z,1.80
2022-09-21T06:02:32.553Z,1.60
2022-09-21T06:03:32.491Z,1.50
2022-09-21T06:04:32.480Z,1.70
2022-09-21T06:05:32.483Z,1.60
2022-09-21T06:06:32.461Z,1.50
2022-09-21T06:07:32.770Z,2.00
2022-09-21T06:08:32.461Z,2.10
2022-09-21T06:09:32.411Z,2.00
2022-09-21T06:10:32.409Z,2.40
2022-09-21T06:11:32.398Z,2.10
2022-09-21T06:12:32.397Z,2.40
2022-09-21T06:13:32.630Z,1.80
2022-09-21T06:14:32.409Z,2.20
2022-09-21T06:15:32.391Z,1.90
2022-09-21T06:16:32.356Z,1.60
2022-09-21T06:17:32.322Z,1.90
2022-09-21T06:18:32.305Z,2.20
2022-09-21T06:19:32.448Z,1.70
2022-09-21T06:20:32.275Z,2.10
2022-09-21T06:21:32.251Z,1.40
2022-09-21T06:22:32.231Z,1.70
2022-09-21T06:23:32.299Z,1.90
2022-09-21T06:24:32.199Z,1.50
2022-09-21T06:25:32.240Z,1.50
2022-09-21T06:26:32.179Z,2.30
2022-09-21T06:27:32.166Z,1.90
2022-09-21T06:28:32.166Z,1.60
2022-09-21T06:29:32.299Z,1.70
2022-09-21T06:30:32.146Z,1.90
2022-09-21T06:31:32.206Z,1.50
2022-09-21T06:32:32.084Z,1.60
2022-09-21T06:33:32.083Z,1.90
2022-09-21T06:34:32.069Z,1.70
2022-09-21T06:35:32.161Z,2.00
2022-09-21T06:36:32.047Z,1.40
2022-09-21T06:37:32.059Z,1.70
2022-09-21T06:38:32.012Z,1.80
2022-09-21T06:39:31.991Z,1.70
2022-09-21T06:40:32.026Z,1.60
2022-09-21T06:41:32.147Z,2.00
2022-09-21T06:42:31.960Z,2.40
2022-09-21T06:43:31.995Z,1.60
2022-09-21T06:44:31.941Z,1.40
2022-09-21T06:45:31.925Z,1.60
2022-09-21T06:46:31.898Z,1.30
2022-09-21T06:47:31.960Z,1.30
2022-09-21T06:48:31.903Z,1.60
2022-09-21T06:49:31.938Z,1.60
2022-09-21T06:50:31.894Z,1.40
2022-09-21T06:51:31.834Z,1.50
2022-09-21T06:52:31.807Z,1.30
2022-09-21T06:53:32.037Z,1.10
2022-09-21T06:54:31.800Z,1.40
2022-09-21T06:55:31.807Z,1.30
2022-09-21T06:56:31.762Z,1.40
2022-09-21T06:57:31.766Z,1.70
2022-09-21T06:58:31.747Z,1.20
2022-09-21T06:59:32.073Z,1.50
2022-09-21T07:00:31.693Z,1.40
2022-09-21T07:01:31.837Z,1.50
2022-09-21T07:02:31.676Z,1.60
2022-09-21T07:03:31.661Z,1.60
2022-09-21T07:04:31.654Z,1.60
2022-09-21T07:05:31.726Z,1.70
2022-09-21T07:06:31.634Z,1.40
2022-09-21T07:07:31.664Z,1.20
2022-09-21T07:10:32.753Z,1.40
2022-09-21T07:11:31.550Z,1.50
2022-09-21T07:12:31.545Z,1.50
2022-09-21T07:13:31.563Z,1.50
2022-09-21T07:14:31.503Z,1.30
2022-09-21T07:15:31.498Z,1.20
2022-09-21T07:16:31.647Z,1.80
2022-09-21T07:17:31.473Z,1.40
2022-09-21T07:18:42.686Z,1.10
2022-09-21T07:19:32.564Z,1.50
2022-09-21T07:20:31.422Z,1.60
2022-09-21T07:21:31.409Z,1.10
2022-09-21T07:22:31.489Z,1.30
2022-09-21T07:23:31.386Z,1.10
2022-09-21T07:24:31.385Z,1.20
2022-09-21T07:25:31.401Z,1.50
2022-09-21T07:26:31.346Z,1.20
2022-09-21T07:27:31.335Z,1.40
2022-09-21T07:28:31.538Z,1.70
2022-09-21T07:29:31.309Z,1.60
2022-09-21T07:30:31.285Z,1.50
2022-09-21T07:31:31.377Z,1.40
2022-09-21T07:32:31.253Z,1.40
2022-09-21T07:33:35.749Z,1.40
2022-09-21T07:34:31.445Z,1.40
2022-09-21T07:35:31.216Z,1.30
2022-09-21T07:36:31.202Z,1.50
2022-09-21T07:37:31.215Z,1.10
2022-09-21T07:38:31.168Z,1.50
2022-09-21T07:39:31.164Z,1.40
2022-09-21T07:40:31.401Z,1.30
2022-09-21T07:41:31.134Z,1.60
2022-09-21T07:42:31.120Z,1.20
2022-09-21T07:43:31.139Z,1.10
2022-09-21T07:44:31.089Z,1.50
2022-09-21T07:45:31.142Z,1.30
2022-09-21T07:46:31.222Z,1.50
2022-09-21T07:47:31.053Z,1.40
2022-09-21T07:48:31.032Z,1.10
2022-09-21T07:49:31.070Z,1.30
2022-09-21T07:50:30.999Z,1.40
2022-09-21T07:51:31.038Z,1.60
2022-09-21T07:52:31.130Z,1.10
2022-09-21T07:53:30.958Z,1.10
2022-09-21T07:54:30.958Z,1.50
2022-09-21T07:55:31.030Z,1.00
2022-09-21T07:56:30.935Z,1.40
2022-09-21T07:57:30.917Z,1.30
2022-09-21T07:58:31.215Z,1.30
2022-09-21T07:59:30.907Z,1.10
2022-09-21T08:00:30.863Z,1.40
2022-09-21T08:01:30.988Z,1.20
2022-09-21T08:02:30.902Z,1.30
2022-09-21T08:03:30.850Z,1.10
2022-09-21T08:04:30.910Z,0.90
2022-09-21T08:05:30.798Z,1.30
2022-09-21T08:06:30.804Z,1.10
2022-09-21T08:07:30.801Z,1.40
2022-09-21T08:08:30.765Z,1.10
2022-09-21T08:09:30.748Z,1.20
2022-09-21T08:10:30.857Z,1.20
2022-09-21T08:11:30.725Z,1.20
2022-09-21T08:12:30.803Z,1.20
2022-09-21T08:13:30.784Z,1.40
2022-09-21T08:14:30.684Z,1.30
2022-09-21T08:15:48.948Z,1.40
2022-09-21T08:16:31.876Z,1.30
2022-09-21T08:17:30.645Z,1.10
2022-09-21T08:18:30.633Z,1.00
2022-09-21T08:19:30.637Z,1.10
2022-09-21T08:20:30.599Z,1.40
2022-09-21T08:21:30.634Z,1.30
2022-09-21T08:22:30.770Z,1.20
2022-09-21T08:23:31.066Z,1.20
2022-09-21T08:24:30.601Z,1.30
2022-09-21T08:25:30.593Z,1.20
2022-09-21T08:26:30.513Z,1.20
2022-09-21T08:27:30.511Z,1.20
2022-09-21T08:28:30.693Z,1.40
2022-09-21T08:29:30.481Z,1.30
2022-09-21T08:30:30.489Z,1.20
2022-09-21T08:31:30.564Z,1.30
2022-09-21T08:32:49.922Z,1.10
2022-09-21T08:33:31.586Z,1.10
2022-09-21T08:34:30.406Z,1.30
2022-09-21T08:35:31.297Z,1.30
2022-09-21T08:36:30.377Z,1.20
2022-09-21T08:37:30.376Z,1.60
2022-09-21T08:38:30.345Z,1.10
2022-09-21T08:39:30.413Z,1.20
2022-09-21T08:40:30.405Z,1.40
2022-09-21T08:41:30.314Z,1.30
2022-09-21T08:42:30.310Z,1.50
2022-09-21T08:43:30.313Z,1.30
2022-09-21T08:44:30.281Z,1.70
2022-09-21T08:45:30.330Z,1.00
2022-09-21T08:46:30.291Z,1.10
2022-09-21T08:47:30.258Z,1.10
2022-09-21T08:48:35.887Z,24.00
2022-09-21T08:49:31.236Z,18.70
2022-09-21T08:50:30.206Z,7.40
2022-09-21T08:51:30.254Z,14.80
2022-09-21T08:52:30.150Z,4.90
2022-09-21T08:53:30.132Z,1.90
2022-09-21T08:54:30.115Z,4.10
2022-09-21T08:55:30.221Z,7.60
2022-09-21T08:56:47.374Z,8.80
2022-09-21T08:57:31.214Z,5.80
2022-09-21T08:58:30.070Z,6.00
2022-09-21T08:59:30.098Z,3.50
2022-09-21T09:00:30.097Z,3.40
2022-09-21T09:01:30.034Z,2.70
2022-09-21T09:02:30.006Z,1.80
2022-09-21T09:03:30.067Z,1.60
2022-09-21T09:04:30.009Z,16.00
2022-09-21T09:05:29.987Z,22.20
2022-09-21T09:06:29.946Z,30.20
2022-09-21T09:07:29.965Z,18.50
2022-09-21T09:08:29.924Z,11.60
2022-09-21T09:09:30.060Z,7.50
2022-09-21T09:10:29.899Z,25.90
2022-09-21T09:11:29.889Z,32.90
2022-09-21T09:12:29.881Z,25.90
2022-09-21T09:13:29.897Z,58.70
2022-09-21T09:14:29.831Z,39.30
2022-09-21T09:15:29.972Z,34.10
2022-09-21T09:16:29.823Z,24.50
2022-09-21T09:17:29.792Z,9.20
2022-09-21T09:18:29.785Z,4.30
2022-09-21T09:19:29.944Z,2.90
2022-09-21T09:20:29.771Z,2.30
2022-09-21T09:21:32.194Z,1.70
2022-09-21T09:22:29.744Z,1.40
2022-09-21T09:23:29.730Z,41.50
2022-09-21T09:24:29.691Z,27.80
2022-09-21T09:25:29.707Z,67.80
2022-09-21T09:26:29.670Z,42.60
2022-09-21T09:27:29.749Z,60.90
2022-09-21T09:28:29.654Z,65.20
2022-09-21T09:29:29.618Z,73.90
2022-09-21T09:30:29.622Z,82.60
2022-09-21T09:31:29.689Z,94.30
2022-09-21T09:32:29.578Z,123.50
2022-09-21T09:33:29.789Z,83.40
2022-09-21T09:34:29.557Z,107.30
2022-09-21T09:35:29.538Z,55.00
2022-09-21T09:36:54.009Z,68.30
2022-09-21T09:37:30.546Z,54.60
2022-09-21T09:38:29.517Z,67.30
2022-09-21T09:39:29.566Z,77.90
2022-09-21T09:40:29.503Z,125.10
2022-09-21T09:41:29.468Z,134.60
2022-09-21T09:42:29.443Z,50.50
2022-09-21T09:43:29.452Z,83.40
2022-09-21T09:44:29.413Z,149.00
2022-09-21T09:45:29.481Z,104.30
2022-09-21T09:46:29.442Z,63.20
2022-09-21T09:47:29.371Z,90.50
2022-09-21T09:48:29.359Z,63.70
2022-09-21T09:49:29.363Z,103.20
2022-09-21T09:50:29.331Z,54.00
2022-09-21T09:51:29.431Z,72.20
2022-09-21T09:52:29.299Z,37.00
2022-09-21T09:53:29.316Z,49.50
2022-09-21T09:54:29.308Z,22.70
2022-09-21T09:55:29.290Z,10.10
2022-09-21T09:56:29.239Z,4.90
2022-09-21T09:57:29.397Z,3.50
2022-09-21T09:58:29.230Z,2.90
2022-09-21T09:59:29.218Z,2.10
2022-09-21T10:00:29.180Z,2.20
2022-09-21T10:01:29.276Z,1.80
2022-09-21T10:02:29.160Z,1.70
2022-09-21T10:03:29.295Z,1.40
2022-09-21T10:04:29.181Z,1.90
2022-09-21T10:05:29.114Z,1.70
2022-09-21T10:06:29.106Z,1.60
2022-09-21T10:07:29.102Z,1.80
2022-09-21T10:08:29.072Z,1.80
2022-09-21T10:09:29.556Z,1.80
2022-09-21T10:10:29.051Z,1.90
2022-09-21T10:11:29.030Z,1.70
2022-09-21T10:12:29.023Z,2.10
2022-09-21T10:13:29.036Z,2.00
2022-09-21T10:14:29.008Z,49.20
2022-09-21T10:15:29.070Z,9.50
2022-09-21T10:16:29.048Z,33.60
2022-09-21T10:17:28.948Z,88.20
2022-09-21T10:18:28.965Z,29.50
2022-09-21T10:19:28.986Z,19.80
2022-09-21T10:20:28.896Z,7.70
2022-09-21T10:21:29.049Z,4.10
2022-09-21T10:22:28.884Z,3.50
2022-09-21T10:23:28.875Z,2.90
2022-09-21T10:24:28.865Z,2.60
2022-09-21T10:25:28.876Z,2.60
2022-09-21T10:26:28.825Z,2.10
2022-09-21T10:27:28.886Z,2.10
2022-09-21T10:28:28.787Z,2.00
2022-09-21T10:29:28.771Z,1.80
2022-09-21T10:30:28.766Z,1.80
2022-09-21T10:31:28.816Z,2.10
2022-09-21T10:32:28.723Z,2.00
2022-09-21T10:33:28.867Z,1.80
2022-09-21T10:34:28.725Z,2.00
2022-09-21T10:35:28.685Z,1.70
2022-09-21T10:36:28.685Z,1.90
2022-09-21T10:42:29.506Z,0.50
2022-09-21T10:43:31.769Z,0.40
2022-09-21T10:44:29.650Z,1.50
2022-09-21T10:45:29.449Z,0.30
2022-09-21T10:46:29.472Z,1.60
2022-09-21T10:47:29.434Z,0.40
2022-09-21T10:48:29.445Z,0.90
2022-09-21T10:49:29.410Z,1.60
2022-09-21T10:50:29.482Z,5.50
2022-09-21T10:51:29.371Z,27.70
2022-09-21T10:53:53.823Z,61.30
2022-09-21T10:54:50.264Z,59.30
2022-09-21T10:56:04.983Z,82.20
2022-09-21T10:56:51.230Z,83.10
2022-09-21T10:57:50.213Z,66.60
2022-09-21T10:58:50.184Z,67.00
2022-09-21T10:59:50.300Z,61.70
2022-09-21T11:00:50.166Z,63.40
2022-09-21T11:01:50.193Z,86.20
2022-09-21T11:02:50.197Z,95.40
2022-09-21T11:03:50.121Z,35.00
2022-09-21T11:04:50.115Z,94.30
2022-09-21T11:05:50.199Z,90.40
2022-09-21T11:06:50.070Z,79.90
2022-09-21T11:07:50.051Z,73.20
2022-09-21T11:08:50.033Z,57.80
2022-09-21T11:09:50.055Z,65.70
2022-09-21T11:10:50.347Z,47.20
2022-09-21T11:11:50.115Z,38.20
2022-09-21T11:12:50.002Z,35.40
2022-09-21T11:13:49.983Z,31.40
2022-09-21T11:14:49.962Z,14.80
2022-09-21T11:15:50.049Z,12.60
2022-09-21T11:16:49.927Z,7.40
2022-09-21T11:17:50.065Z,17.10
2022-09-21T11:18:49.965Z,20.40
2022-09-21T11:19:49.887Z,20.20
2022-09-21T11:20:50.291Z,29.60
2022-09-21T11:21:49.889Z,24.10
2022-09-21T11:22:51.557Z,35.90
2022-09-21T11:23:50.258Z,21.50
2022-09-21T11:24:49.840Z,13.80
2022-09-21T11:25:50.139Z,11.40
2022-09-21T11:26:49.789Z,11.30
2022-09-21T11:27:49.999Z,19.40
2022-09-21T11:28:49.770Z,17.30
2022-09-21T11:29:49.977Z,11.60
2022-09-21T11:30:49.813Z,12.60
2022-09-21T11:31:49.750Z,14.10
2022-09-21T11:32:49.727Z,13.60
2022-09-21T11:33:49.709Z,7.40
2022-09-21T11:34:49.699Z,5.40
2022-09-21T11:35:49.895Z,13.30
2022-09-21T11:36:49.671Z,10.10
2022-09-21T11:37:49.655Z,6.30
2022-09-21T11:38:49.634Z,20.00
2022-09-21T11:39:49.627Z,14.50
2022-09-21T11:40:49.963Z,8.80
2022-09-21T11:41:49.784Z,13.50
2022-09-21T11:42:49.583Z,27.10
2022-09-21T11:43:49.585Z,22.30
2022-09-21T11:44:49.555Z,16.10
2022-09-21T11:45:50.642Z,22.30
2022-09-21T11:46:49.522Z,20.40
2022-09-21T11:47:49.774Z,27.20
2022-09-21T11:48:49.497Z,50.40
2022-09-21T11:49:49.505Z,31.30
2022-09-21T11:50:52.721Z,14.60
2022-09-21T11:51:49.460Z,42.50
2022-09-21T11:52:49.443Z,56.40
2022-09-21T11:53:49.555Z,54.60
2022-09-21T11:54:49.419Z,131.60
2022-09-21T11:55:49.808Z,48.60
2022-09-21T11:56:49.394Z,55.50
2022-09-21T11:57:52.873Z,25.40
2022-09-21T11:58:53.031Z,28.60
2022-09-21T11:59:49.372Z,12.70
2022-09-21T12:00:49.337Z,9.60
2022-09-21T12:01:49.318Z,6.40
2022-09-21T12:03:49.346Z,2.70
2022-09-21T12:04:49.395Z,1.40
2022-09-21T12:05:50.223Z,1.70
2022-09-21T12:06:49.263Z,1.20
2022-09-21T12:07:49.239Z,1.20
2022-09-21T12:08:49.340Z,1.20
2022-09-21T12:09:49.211Z,0.90
2022-09-21T12:10:50.177Z,1.70
2022-09-21T12:11:49.207Z,5.90
2022-09-21T12:12:49.167Z,17.70
2022-09-21T12:13:49.282Z,16.20
2022-09-21T12:14:49.159Z,38.60
2022-09-21T12:15:49.136Z,35.40
2022-09-21T12:16:49.304Z,61.60
2022-09-21T12:17:49.098Z,80.10
2022-09-21T12:18:49.780Z,41.30
2022-09-21T12:19:49.082Z,45.20
2022-09-21T12:20:49.437Z,87.60
2022-09-21T12:21:49.162Z,59.90
2022-09-21T12:22:49.226Z,77.00
2022-09-21T12:23:49.264Z,137.60
2022-09-21T12:24:49.018Z,64.90
2022-09-21T12:25:49.003Z,81.30
2022-09-21T12:26:48.976Z,50.00
2022-09-21T12:27:48.970Z,58.50
2022-09-21T12:28:49.604Z,87.80
2022-09-21T12:29:48.941Z,52.60
2022-09-21T12:30:48.958Z,23.20
2022-09-21T12:31:48.923Z,14.30
2022-09-21T12:32:48.894Z,7.90
2022-09-21T12:33:49.230Z,4.20
2022-09-21T12:34:51.833Z,3.50
2022-09-21T12:36:49.027Z,1.40
2022-09-21T12:37:48.830Z,1.40
2022-09-21T12:38:49.204Z,1.40
2022-09-21T12:39:48.816Z,1.10
2022-09-21T12:40:48.880Z,1.10
2022-09-21T12:41:48.841Z,12.20
2022-09-21T12:42:49.032Z,26.60
2022-09-21T12:43:48.822Z,11.00
2022-09-21T12:44:48.723Z,12.00
2022-09-21T12:45:48.831Z,5.80
2022-09-21T12:46:51.139Z,3.00
2022-09-21T12:47:48.769Z,2.80
2022-09-21T12:48:48.936Z,1.60
2022-09-21T12:49:48.711Z,1.30
2022-09-21T12:50:48.760Z,1.00
2022-09-21T12:51:48.629Z,1.00
2022-09-21T12:52:48.704Z,1.10
2022-09-21T12:53:50.876Z,1.00
2022-09-21T12:54:48.787Z,1.00
2022-09-21T12:55:49.003Z,15.40
2022-09-21T12:56:48.650Z,21.30
2022-09-21T12:58:04.790Z,5.30
2022-09-21T12:58:49.570Z,2.40
2022-09-21T12:59:48.697Z,1.50
2022-09-21T13:00:48.892Z,1.50
2022-09-21T13:01:50.519Z,1.30
2022-09-21T13:02:49.502Z,0.70
2022-09-21T13:03:48.556Z,1.10
2022-09-21T13:04:48.492Z,0.90
2022-09-21T13:05:48.460Z,1.40
2022-09-21T13:06:48.748Z,54.90
2022-09-21T13:07:48.478Z,26.30
2022-09-21T13:09:48.546Z,30.40
2022-09-21T13:10:54.666Z,13.90
2022-09-21T13:11:49.468Z,3.50
2022-09-21T13:12:48.376Z,3.00
2022-09-21T13:13:48.457Z,1.60
2022-09-21T13:14:48.402Z,1.40
2022-09-21T13:15:48.335Z,1.10
2022-09-21T13:16:48.404Z,1.00
2022-09-21T13:17:48.482Z,1.00
2022-09-21T13:18:48.507Z,1.00
2022-09-21T13:19:48.307Z,0.90
2022-09-21T13:20:48.241Z,1.20
2022-09-21T13:21:48.258Z,0.90
2022-09-21T13:22:48.281Z,1.00
2022-09-21T13:23:48.305Z,1.10
2022-09-21T13:24:48.204Z,1.60